Time;durP1;ratioP1;P1;durP2;ratioP2;P2;SDS_P1;SDS_P2;PMS_P1;PMS_P2;Temp;Humidity;BMP_temperature;BMP_pressure;BME280_temperature;BME280_humidity;BME280_pressure;Samples;Min_cycle;Max_cycle;Signal;HPM_P1;HPM_P2
2021/12/07 00:01:24;;;;;;;14.93;10.32;;;;;;;;;;5020138;28;20041;-82
2021/12/07 00:03:51;;;;;;;14.27;10.25;;;;;;;;;;5021413;28;20384;-80
2021/12/07 00:06:18;;;;;;;16.38;10.85;;;;;;;;;;5020418;28;20037;-81
2021/12/07 00:08:44;;;;;;;15.95;10.23;;;;;;;;;;5022930;28;20091;-80
2021/12/07 00:11:11;;;;;;;15.98;11.50;;;;;;;;;;5027398;28;20032;-81
2021/12/07 00:13:39;;;;;;;16.13;11.10;;;;;;;;;;5039614;28;20128;-82
2021/12/07 00:16:06;;;;;;;14.10;9.77;;;;;;;;;;5026968;28;20439;-84
2021/12/07 00:18:32;;;;;;;15.55;10.90;;;;;;;;;;5036309;28;20349;-83
2021/12/07 00:20:59;;;;;;;14.68;9.80;;;;;;;;;;5020349;28;20041;-83
2021/12/07 00:23:25;;;;;;;14.77;10.27;;;;;;;;;;5034645;28;20044;-82
2021/12/07 00:25:51;;;;;;;14.65;10.05;;;;;;;;;;5039405;28;20044;-81
2021/12/07 00:28:22;;;;;;;13.70;9.60;;;;;;;;;;5028433;28;20503;-82
2021/12/07 00:30:52;;;;;;;16.48;10.65;;;;;;;;;;5032434;28;20041;-84
2021/12/07 00:33:35;;;;;;;13.75;9.30;;;;;;;;;;5022111;28;20036;-82
2021/12/07 00:36:02;;;;;;;14.65;9.95;;;;;;;;;;5039536;28;20047;-83
2021/12/07 00:38:28;;;;;;;14.02;9.65;;;;;;;;;;5036493;28;20033;-81
2021/12/07 00:40:55;;;;;;;15.02;10.75;;;;;;;;;;5038871;28;20099;-82
2021/12/07 00:43:22;;;;;;;14.85;9.98;;;;;;;;;;5038743;28;20056;-81
2021/12/07 00:45:50;;;;;;;13.15;9.43;;;;;;;;;;5038374;28;20131;-83
2021/12/07 00:48:17;;;;;;;14.57;9.60;;;;;;;;;;5039425;28;20036;-83
2021/12/07 00:50:45;;;;;;;12.80;9.85;;;;;;;;;;5030519;28;20413;-83
2021/12/07 00:53:12;;;;;;;14.32;9.60;;;;;;;;;;5019413;28;20045;-84
2021/12/07 00:55:40;;;;;;;13.85;9.90;;;;;;;;;;5019379;28;20389;-83
2021/12/07 00:58:16;;;;;;;13.95;9.68;;;;;;;;;;5018953;28;20085;-82
2021/12/07 01:00:43;;;;;;;14.00;9.73;;;;;;;;;;5028367;28;20083;-83
2021/12/07 01:03:09;;;;;;;14.52;9.88;;;;;;;;;;5025831;28;20068;-85
2021/12/07 01:05:36;;;;;;;13.27;9.65;;;;;;;;;;5019023;28;20056;-84
2021/12/07 01:24:44;;;;;;;11.23;7.93;;;;;;;;;;5041406;28;20076;-80
2021/12/07 01:27:11;;;;;;;10.75;7.60;;;;;;;;;;5021996;28;20083;-79
2021/12/07 01:29:40;;;;;;;13.43;8.75;;;;;;;;;;5035243;28;20041;-81
2021/12/07 01:37:43;;;;;;;10.55;8.13;;;;;;;;;;5066341;28;20037;-81
2021/12/07 01:40:22;;;;;;;11.65;8.43;;;;;;;;;;5034457;28;20041;-84
2021/12/07 01:50:43;;;;;;;11.40;8.48;;;;;;;;;;5036631;28;20110;-83
2021/12/07 02:01:00;;;;;;;11.40;8.55;;;;;;;;;;5034228;28;20183;-84
2021/12/07 02:03:26;;;;;;;11.73;8.43;;;;;;;;;;5032842;28;20045;-83
2021/12/07 02:05:52;;;;;;;12.35;9.38;;;;;;;;;;5036318;28;20056;-81
2021/12/07 02:08:23;;;;;;;13.52;9.38;;;;;;;;;;5037371;28;20376;-83
2021/12/07 02:10:52;;;;;;;12.32;9.18;;;;;;;;;;5036630;28;20211;-83
2021/12/07 02:13:32;;;;;;;11.70;8.57;;;;;;;;;;5037714;28;20033;-84
2021/12/07 02:15:58;;;;;;;13.13;9.18;;;;;;;;;;5037533;28;20048;-86
2021/12/07 02:18:26;;;;;;;13.43;9.38;;;;;;;;;;5037241;28;20071;-82
2021/12/07 02:20:52;;;;;;;12.80;9.32;;;;;;;;;;5037000;28;20048;-83
2021/12/07 02:23:18;;;;;;;13.50;10.02;;;;;;;;;;5033621;28;20037;-84
2021/12/07 02:25:44;;;;;;;13.38;9.80;;;;;;;;;;5018890;28;20037;-82
2021/12/07 02:28:14;;;;;;;11.68;8.68;;;;;;;;;;5028413;28;20033;-82
2021/12/07 02:30:41;;;;;;;11.35;8.73;;;;;;;;;;5033528;28;20091;-82
2021/12/07 02:33:07;;;;;;;11.00;8.95;;;;;;;;;;5017500;28;20041;-83
2021/12/07 02:35:33;;;;;;;11.25;8.63;;;;;;;;;;5017825;28;20041;-82
2021/12/07 02:38:00;;;;;;;12.63;8.95;;;;;;;;;;5016904;28;20079;-82
2021/12/07 02:40:26;;;;;;;11.20;8.57;;;;;;;;;;5026765;28;20048;-81
2021/12/07 02:42:53;;;;;;;12.35;7.93;;;;;;;;;;5051544;28;20075;-82
2021/12/07 02:45:21;;;;;;;11.80;8.52;;;;;;;;;;5052369;28;20063;-82
2021/12/07 02:47:47;;;;;;;12.27;8.25;;;;;;;;;;5033253;28;20458;-81
2021/12/07 02:50:14;;;;;;;10.18;7.65;;;;;;;;;;5034221;28;20120;-82
2021/12/07 02:52:41;;;;;;;9.80;7.40;;;;;;;;;;5040591;28;20051;-81
2021/12/07 02:55:07;;;;;;;9.65;7.70;;;;;;;;;;5017447;28;20041;-81
2021/12/07 02:57:34;;;;;;;10.80;8.38;;;;;;;;;;5033311;28;20088;-81
2021/12/07 03:00:08;;;;;;;11.60;8.68;;;;;;;;;;5033350;28;20132;-83
2021/12/07 03:02:42;;;;;;;11.60;8.30;;;;;;;;;;5037714;28;20045;-80
2021/12/07 03:05:19;;;;;;;10.48;8.10;;;;;;;;;;5017297;28;20041;-80
2021/12/07 03:27:01;;;;;;;12.82;9.13;;;;;;;;;;5032820;28;20041;-81
2021/12/07 03:29:27;;;;;;;12.88;9.20;;;;;;;;;;5016455;28;20140;-80
2021/12/07 03:31:54;;;;;;;16.63;10.88;;;;;;;;;;5025822;28;20126;-80
2021/12/07 03:34:20;;;;;;;15.82;10.00;;;;;;;;;;5033509;28;20085;-81
2021/12/07 03:36:46;;;;;;;11.75;9.15;;;;;;;;;;5034393;28;20145;-80
2021/12/07 03:39:12;;;;;;;13.60;9.73;;;;;;;;;;5035757;28;20064;-81
2021/12/07 03:41:38;;;;;;;13.45;9.82;;;;;;;;;;5035011;28;20053;-81
2021/12/07 03:44:05;;;;;;;14.38;9.52;;;;;;;;;;5015893;28;20096;-81
2021/12/07 03:46:31;;;;;;;15.05;9.57;;;;;;;;;;5016504;28;20057;-81
2021/12/07 03:48:58;;;;;;;14.18;9.80;;;;;;;;;;5033006;28;20041;-81
2021/12/07 03:51:24;;;;;;;13.55;9.13;;;;;;;;;;5033043;28;20143;-82
2021/12/07 03:53:50;;;;;;;13.20;8.70;;;;;;;;;;5016515;28;20046;-80
2021/12/07 03:56:16;;;;;;;12.75;8.73;;;;;;;;;;5045428;28;20056;-80
2021/12/07 03:58:43;;;;;;;12.48;7.85;;;;;;;;;;5019857;28;20048;-81
2021/12/07 04:01:11;;;;;;;13.27;9.15;;;;;;;;;;5036300;28;20118;-79
2021/12/07 04:03:37;;;;;;;11.77;8.27;;;;;;;;;;5018507;28;20057;-80
2021/12/07 04:06:07;;;;;;;13.10;9.07;;;;;;;;;;5015857;28;20037;-79
2021/12/07 04:08:35;;;;;;;12.38;8.05;;;;;;;;;;5016394;28;20472;-81
2021/12/07 04:11:01;;;;;;;12.55;8.20;;;;;;;;;;5016140;28;20045;-80
2021/12/07 04:13:28;;;;;;;11.30;8.30;;;;;;;;;;5031646;28;20064;-79
2021/12/07 04:15:54;;;;;;;14.63;8.80;;;;;;;;;;5048283;28;20103;-80
2021/12/07 04:18:21;;;;;;;15.18;9.60;;;;;;;;;;5016089;28;20050;-81
2021/12/07 04:20:47;;;;;;;17.27;8.77;;;;;;;;;;5015960;28;20038;-82
2021/12/07 04:23:14;;;;;;;15.05;8.65;;;;;;;;;;5015866;28;20053;-84
2021/12/07 04:25:40;;;;;;;13.88;8.20;;;;;;;;;;5015687;28;20064;-82
2021/12/07 04:28:07;;;;;;;15.48;8.93;;;;;;;;;;5032022;28;20465;-83
2021/12/07 04:30:36;;;;;;;15.05;8.52;;;;;;;;;;5039630;28;20350;-83
2021/12/07 04:33:03;;;;;;;12.60;7.90;;;;;;;;;;5033462;28;20048;-82
2021/12/07 04:35:29;;;;;;;17.38;8.55;;;;;;;;;;5035894;28;20095;-81
2021/12/07 04:37:59;;;;;;;15.20;8.35;;;;;;;;;;5031360;28;20048;-82
2021/12/07 04:40:27;;;;;;;13.80;8.38;;;;;;;;;;5039132;28;20548;-82
2021/12/07 04:42:53;;;;;;;10.73;7.55;;;;;;;;;;5039113;28;20475;-84
2021/12/07 04:45:36;;;;;;;13.82;7.45;;;;;;;;;;5038826;28;20061;-82
2021/12/07 04:59:01;;;;;;;10.15;6.47;;;;;;;;;;5055131;28;20409;-84
2021/12/07 05:01:27;;;;;;;10.60;7.32;;;;;;;;;;5038188;28;20440;-82
2021/12/07 05:03:57;;;;;;;11.05;6.70;;;;;;;;;;5036782;28;20106;-81
2021/12/07 05:06:27;;;;;;;12.38;5.90;;;;;;;;;;5037899;28;20558;-82
2021/12/07 05:09:03;;;;;;;9.77;4.93;;;;;;;;;;5038493;28;20048;-81
2021/12/07 05:11:51;;;;;;;7.55;3.70;;;;;;;;;;5038477;28;20060;-82
2021/12/07 05:14:20;;;;;;;8.80;3.60;;;;;;;;;;5038699;28;20032;-82
2021/12/07 05:25:32;;;;;;;5.18;2.50;;;;;;;;;;5035350;28;20118;-84
2021/12/07 05:38:47;;;;;;;10.80;2.45;;;;;;;;;;5052100;28;20040;-82
2021/12/07 05:41:13;;;;;;;15.25;2.47;;;;;;;;;;5038491;28;20084;-84
2021/12/07 05:43:43;;;;;;;8.07;2.40;;;;;;;;;;5037395;28;20373;-82
2021/12/07 05:46:09;;;;;;;6.78;2.40;;;;;;;;;;5020033;28;20457;-80
2021/12/07 05:48:35;;;;;;;9.02;2.33;;;;;;;;;;5021608;28;20068;-78
2021/12/07 05:51:02;;;;;;;7.57;2.25;;;;;;;;;;5009860;28;20052;-78
2021/12/07 05:53:28;;;;;;;8.40;2.55;;;;;;;;;;5001536;28;20037;-77
2021/12/07 05:55:54;;;;;;;6.90;2.22;;;;;;;;;;5001635;28;20133;-77
2021/12/07 05:58:21;;;;;;;9.65;2.47;;;;;;;;;;5017844;28;20415;-78
2021/12/07 06:00:47;;;;;;;4.88;1.95;;;;;;;;;;5021152;28;20040;-77
2021/12/07 06:03:14;;;;;;;5.75;1.88;;;;;;;;;;5023969;28;20065;-79
2021/12/07 06:05:41;;;;;;;6.72;2.03;;;;;;;;;;5001905;28;20096;-81
2021/12/07 06:08:07;;;;;;;4.60;1.90;;;;;;;;;;5001017;28;20085;-80
2021/12/07 06:11:21;;;;;;;;;;;;;;;;;;;;;
2021/12/07 06:18:09;;;;;;;;;;;;;;;;;;;;;
2021/12/07 06:20:42;;;;;;;6.32;2.10;;;;;;;;;;4954901;29;20503;-84
2021/12/07 06:23:17;;;;;;;9.23;2.00;;;;;;;;;;4926123;28;20067;-83
2021/12/07 06:25:44;;;;;;;7.85;2.33;;;;;;;;;;4941880;28;20074;-83
2021/12/07 06:28:11;;;;;;;5.70;2.08;;;;;;;;;;4942393;28;20069;-84
2021/12/07 06:30:37;;;;;;;4.90;1.80;;;;;;;;;;5006422;28;20379;-83
2021/12/07 06:33:03;;;;;;;3.78;1.55;;;;;;;;;;5011252;28;20033;-82
2021/12/07 06:35:29;;;;;;;6.07;1.85;;;;;;;;;;5022778;28;20041;-83
2021/12/07 06:37:55;;;;;;;5.82;1.77;;;;;;;;;;5011744;28;20124;-82
2021/12/07 06:40:22;;;;;;;5.00;2.00;;;;;;;;;;5016744;28;20033;-83
2021/12/07 06:42:48;;;;;;;5.30;2.00;;;;;;;;;;5000940;28;20077;-82
2021/12/07 06:45:14;;;;;;;5.60;2.15;;;;;;;;;;5010395;28;20069;-81
2021/12/07 06:47:40;;;;;;;4.88;1.98;;;;;;;;;;5019420;28;20376;-83
2021/12/07 06:50:09;;;;;;;5.05;2.17;;;;;;;;;;5016629;28;20132;-82
2021/12/07 06:52:35;;;;;;;8.32;2.55;;;;;;;;;;5016831;28;20048;-82
2021/12/07 06:55:02;;;;;;;8.25;2.30;;;;;;;;;;5043437;28;20037;-82
2021/12/07 06:57:28;;;;;;;6.70;2.03;;;;;;;;;;5032613;28;20037;-82
2021/12/07 07:00:08;;;;;;;5.47;2.17;;;;;;;;;;5048897;28;20162;-92
2021/12/07 07:02:34;;;;;;;5.13;2.53;;;;;;;;;;5027492;28;20116;-82
2021/12/07 07:05:01;;;;;;;4.88;1.75;;;;;;;;;;5039038;28;20381;-84
2021/12/07 07:07:27;;;;;;;7.65;2.33;;;;;;;;;;5033429;28;20104;-82
2021/12/07 07:09:53;;;;;;;4.30;2.47;;;;;;;;;;5016697;28;20048;-82
2021/12/07 07:12:20;;;;;;;4.90;2.67;;;;;;;;;;5016765;28;20048;-82
2021/12/07 07:14:46;;;;;;;6.07;2.33;;;;;;;;;;5020847;28;20048;-82
2021/12/07 07:17:13;;;;;;;4.85;2.10;;;;;;;;;;5016456;28;20041;-81
2021/12/07 07:19:39;;;;;;;4.55;2.10;;;;;;;;;;5042358;28;20069;-81
2021/12/07 07:22:13;;;;;;;7.90;3.47;;;;;;;;;;5035963;28;20377;-84
2021/12/07 07:24:56;;;;;;;5.63;2.38;;;;;;;;;;5052210;28;20040;-84
2021/12/07 07:27:35;;;;;;;5.03;2.40;;;;;;;;;;5036095;28;20048;-83
2021/12/07 07:30:01;;;;;;;9.50;2.90;;;;;;;;;;5035898;28;20052;-81
2021/12/07 07:32:27;;;;;;;7.43;2.33;;;;;;;;;;5047515;28;20112;-84
2021/12/07 07:34:53;;;;;;;7.38;2.58;;;;;;;;;;5016606;28;20133;-82
2021/12/07 07:37:20;;;;;;;7.32;2.63;;;;;;;;;;5022921;28;20044;-83
2021/12/07 07:39:46;;;;;;;4.60;2.53;;;;;;;;;;5029347;28;20465;-83
2021/12/07 07:42:12;;;;;;;8.25;2.92;;;;;;;;;;5016820;28;20045;-82
2021/12/07 07:44:38;;;;;;;6.45;2.40;;;;;;;;;;5026874;28;20144;-82
2021/12/07 07:47:06;;;;;;;5.75;2.40;;;;;;;;;;5036250;28;20424;-83
2021/12/07 07:49:35;;;;;;;8.07;3.75;;;;;;;;;;5053111;28;20079;-83
2021/12/07 07:52:01;;;;;;;6.93;3.20;;;;;;;;;;5017570;28;20046;-86
2021/12/07 07:54:28;;;;;;;9.48;3.25;;;;;;;;;;5016390;28;20045;-83
2021/12/07 07:56:54;;;;;;;7.55;2.90;;;;;;;;;;5016263;28;20442;-83
2021/12/07 07:59:21;;;;;;;7.57;3.25;;;;;;;;;;5016825;28;20041;-82
2021/12/07 08:01:47;;;;;;;6.60;3.55;;;;;;;;;;5017290;28;20110;-82
2021/12/07 08:04:13;;;;;;;11.68;3.53;;;;;;;;;;5019776;28;20045;-86
2021/12/07 08:06:39;;;;;;;7.20;2.83;;;;;;;;;;5019800;28;20037;-83
2021/12/07 08:09:06;;;;;;;7.38;3.22;;;;;;;;;;5020135;28;20103;-82
2021/12/07 08:11:33;;;;;;;9.13;3.30;;;;;;;;;;5020026;28;20049;-83
2021/12/07 08:13:59;;;;;;;23.50;10.00;;;;;;;;;;5020819;28;20046;-81
2021/12/07 08:16:25;;;;;;;13.10;3.47;;;;;;;;;;5025724;28;20044;-82
2021/12/07 08:19:11;;;;;;;9.07;3.60;;;;;;;;;;5030757;28;20037;-79
2021/12/07 08:21:37;;;;;;;12.80;4.00;;;;;;;;;;5019870;28;20514;-79
2021/12/07 08:24:03;;;;;;;10.70;3.58;;;;;;;;;;5036188;28;20127;-79
2021/12/07 08:26:30;;;;;;;14.65;5.85;;;;;;;;;;5019592;28;20045;-81
2021/12/07 08:28:57;;;;;;;10.02;4.00;;;;;;;;;;5023910;28;20048;-81
2021/12/07 08:31:23;;;;;;;13.02;4.32;;;;;;;;;;5055967;28;20091;-79
2021/12/07 08:33:49;;;;;;;12.50;4.38;;;;;;;;;;5055864;28;20044;-85
2021/12/07 08:36:15;;;;;;;11.93;5.10;;;;;;;;;;5036531;28;20099;-77
2021/12/07 08:38:42;;;;;;;8.25;3.55;;;;;;;;;;5048077;28;20118;-76
2021/12/07 08:41:12;;;;;;;12.10;4.13;;;;;;;;;;5048083;28;20380;-87
2021/12/07 08:43:40;;;;;;;8.80;4.05;;;;;;;;;;5025328;28;20120;-78
2021/12/07 08:46:06;;;;;;;12.30;3.80;;;;;;;;;;5033150;28;20056;-79
2021/12/07 08:48:34;;;;;;;12.15;4.47;;;;;;;;;;5037116;28;20107;-77
2021/12/07 08:51:00;;;;;;;7.72;3.30;;;;;;;;;;5019581;28;20349;-78
2021/12/07 08:53:28;;;;;;;14.00;3.50;;;;;;;;;;5019791;28;20045;-78
2021/12/07 09:01:27;;;;;;;14.38;4.10;;;;;;;;;;5054429;28;20427;-79
2021/12/07 09:03:54;;;;;;;11.65;3.88;;;;;;;;;;5036238;28;20496;-77
2021/12/07 09:06:20;;;;;;;10.38;3.65;;;;;;;;;;5035350;28;20049;-79
2021/12/07 09:08:47;;;;;;;8.38;3.53;;;;;;;;;;5050659;28;20111;-78
2021/12/07 09:11:14;;;;;;;9.10;3.50;;;;;;;;;;5035261;28;20141;-78
2021/12/07 09:13:40;;;;;;;9.45;3.40;;;;;;;;;;5048542;28;20500;-78
2021/12/07 09:16:14;;;;;;;11.70;3.50;;;;;;;;;;5035635;28;20087;-80
2021/12/07 09:18:41;;;;;;;11.13;3.65;;;;;;;;;;5018519;28;20052;-79
2021/12/07 09:21:08;;;;;;;12.65;3.88;;;;;;;;;;5041165;28;20048;-78
2021/12/07 09:23:34;;;;;;;12.43;3.65;;;;;;;;;;5035725;28;20083;-77
2021/12/07 09:26:01;;;;;;;11.05;3.60;;;;;;;;;;5036356;28;20163;-80
2021/12/07 09:28:27;;;;;;;9.82;3.45;;;;;;;;;;5045260;28;20053;-77
2021/12/07 09:30:56;;;;;;;9.55;3.33;;;;;;;;;;5032372;28;20041;-79
2021/12/07 09:33:24;;;;;;;9.48;3.65;;;;;;;;;;5045709;28;20051;-79
2021/12/07 09:35:51;;;;;;;9.68;3.22;;;;;;;;;;5035026;28;20041;-78
2021/12/07 09:38:17;;;;;;;9.07;3.25;;;;;;;;;;5041381;28;20103;-78
2021/12/07 09:40:44;;;;;;;8.88;3.40;;;;;;;;;;5041666;28;20095;-79
2021/12/07 09:43:11;;;;;;;8.90;3.30;;;;;;;;;;5033155;28;20073;-79
2021/12/07 09:45:38;;;;;;;9.52;3.53;;;;;;;;;;5024982;28;20064;-78
2021/12/07 09:48:05;;;;;;;10.95;3.72;;;;;;;;;;5036805;28;20503;-82
2021/12/07 09:50:34;;;;;;;10.20;4.10;;;;;;;;;;5045181;28;20041;-82
2021/12/07 09:53:00;;;;;;;10.95;3.38;;;;;;;;;;5017655;28;20361;-81
2021/12/07 09:55:28;;;;;;;7.20;3.58;;;;;;;;;;5032679;28;20045;-82
2021/12/07 09:57:54;;;;;;;11.27;4.00;;;;;;;;;;5032611;28;20076;-82
2021/12/07 10:00:22;;;;;;;15.10;4.03;;;;;;;;;;5017829;28;20076;-81
2021/12/07 10:02:49;;;;;;;12.00;3.80;;;;;;;;;;5017675;28;20145;-81
2021/12/07 10:05:19;;;;;;;9.80;3.65;;;;;;;;;;5041727;28;20388;-81
2021/12/07 10:07:46;;;;;;;9.88;3.80;;;;;;;;;;5039596;28;20102;-80
2021/12/07 10:10:19;;;;;;;14.35;4.25;;;;;;;;;;5051369;28;20053;-78
2021/12/07 10:12:45;;;;;;;9.30;3.97;;;;;;;;;;5053822;28;20063;-79
2021/12/07 10:15:11;;;;;;;12.10;4.13;;;;;;;;;;5037642;28;20118;-81
2021/12/07 10:17:38;;;;;;;9.52;4.32;;;;;;;;;;5053713;28;20136;-79
2021/12/07 10:20:24;;;;;;;11.27;4.38;;;;;;;;;;5051326;28;20155;-77
2021/12/07 10:22:51;;;;;;;17.25;4.10;;;;;;;;;;5025629;28;20045;-80
2021/12/07 10:25:29;;;;;;;12.45;5.10;;;;;;;;;;5022087;28;20537;-82
2021/12/07 10:27:57;;;;;;;8.45;4.00;;;;;;;;;;5035334;28;20045;-80
2021/12/07 10:30:24;;;;;;;11.32;4.10;;;;;;;;;;5023506;28;20346;-81
2021/12/07 10:33:16;;;;;;;8.73;3.70;;;;;;;;;;5028953;28;20041;-80
2021/12/07 10:35:43;;;;;;;10.40;4.32;;;;;;;;;;5042703;28;20045;-87
2021/12/07 10:38:11;;;;;;;8.48;4.43;;;;;;;;;;5024326;28;20152;-81
2021/12/07 10:40:54;;;;;;;11.30;4.20;;;;;;;;;;5030894;28;20045;-80
2021/12/07 10:43:48;;;;;;;13.93;4.25;;;;;;;;;;5017470;28;20068;-91
2021/12/07 10:46:41;;;;;;;8.43;4.30;;;;;;;;;;4998208;28;20045;-77
2021/12/07 10:52:40;;;;;;;10.45;4.38;;;;;;;;;;4990578;28;20040;-80
2021/12/07 10:55:06;;;;;;;15.10;4.50;;;;;;;;;;4997352;28;20117;-87
2021/12/07 10:57:32;;;;;;;9.93;4.35;;;;;;;;;;4981568;28;20077;-85
2021/12/07 11:00:02;;;;;;;11.13;4.20;;;;;;;;;;4982067;28;20123;-82
2021/12/07 11:02:31;;;;;;;8.55;4.00;;;;;;;;;;4993062;28;20045;-82
2021/12/07 11:04:57;;;;;;;9.65;4.18;;;;;;;;;;5012506;28;20121;-83
2021/12/07 11:07:28;;;;;;;12.45;4.00;;;;;;;;;;4986861;28;20048;-83
2021/12/07 11:10:08;;;;;;;8.02;3.35;;;;;;;;;;5000842;28;20049;-82
2021/12/07 11:12:45;;;;;;;13.18;4.20;;;;;;;;;;4999811;28;20099;-82
2021/12/07 11:15:17;;;;;;;10.23;3.30;;;;;;;;;;4980730;28;20034;-87
2021/12/07 11:17:44;;;;;;;7.68;3.80;;;;;;;;;;5014302;28;20045;-83
2021/12/07 11:20:11;;;;;;;10.65;3.67;;;;;;;;;;5003074;28;20041;-84
2021/12/07 11:22:39;;;;;;;12.63;3.80;;;;;;;;;;5015230;28;20033;-84
2021/12/07 11:25:05;;;;;;;8.70;3.70;;;;;;;;;;4999243;28;20128;-82
2021/12/07 11:30:22;;;;;;;9.75;3.60;;;;;;;;;;5003529;28;20045;-82
2021/12/07 11:32:51;;;;;;;7.22;3.80;;;;;;;;;;4999363;28;20034;-80
2021/12/07 11:35:23;;;;;;;9.43;4.57;;;;;;;;;;5016488;28;20457;-82
2021/12/07 11:37:50;;;;;;;12.43;4.00;;;;;;;;;;5006961;28;20469;-81
2021/12/07 11:40:21;;;;;;;13.07;4.20;;;;;;;;;;5020310;28;20084;-82
2021/12/07 11:42:48;;;;;;;9.93;4.10;;;;;;;;;;5006922;28;20084;-83
2021/12/07 11:45:23;;;;;;;10.63;4.40;;;;;;;;;;5024636;28;20049;-81
2021/12/07 11:47:59;;;;;;;13.75;4.45;;;;;;;;;;5026902;28;20049;-84
2021/12/07 11:50:40;;;;;;;10.73;3.90;;;;;;;;;;5035515;28;20472;-82
2021/12/07 11:53:09;;;;;;;12.63;4.13;;;;;;;;;;5038322;28;20045;-83
2021/12/07 11:55:37;;;;;;;15.20;4.20;;;;;;;;;;5034459;28;20112;-81
2021/12/07 11:58:07;;;;;;;8.95;3.40;;;;;;;;;;5029839;28;20133;-78
2021/12/07 12:00:36;;;;;;;11.32;3.92;;;;;;;;;;5030619;28;20041;-83
2021/12/07 12:03:09;;;;;;;8.88;3.85;;;;;;;;;;5032142;28;20485;-82
2021/12/07 12:05:37;;;;;;;10.52;3.83;;;;;;;;;;5031747;28;20162;-82
2021/12/07 12:08:08;;;;;;;10.38;3.92;;;;;;;;;;5037765;28;20042;-82
2021/12/07 12:10:34;;;;;;;10.85;3.97;;;;;;;;;;5028505;28;20037;-83
2021/12/07 12:13:19;;;;;;;11.73;4.03;;;;;;;;;;5020057;28;20060;-82
2021/12/07 12:16:02;;;;;;;9.27;3.60;;;;;;;;;;5019792;28;20036;-82
2021/12/07 12:18:32;;;;;;;10.18;3.97;;;;;;;;;;5020133;28;20067;-88
2021/12/07 12:20:58;;;;;;;13.73;4.10;;;;;;;;;;5019509;28;20387;-78
2021/12/07 12:23:32;;;;;;;9.25;3.95;;;;;;;;;;5041736;28;20049;-84
2021/12/07 12:26:00;;;;;;;10.88;4.05;;;;;;;;;;5035606;28;20077;-84
2021/12/07 12:28:32;;;;;;;8.68;3.70;;;;;;;;;;5033058;28;20073;-84
2021/12/07 12:30:58;;;;;;;7.43;3.47;;;;;;;;;;5036104;28;20041;-84
2021/12/07 12:33:25;;;;;;;9.98;3.50;;;;;;;;;;5018835;28;20477;-84
2021/12/07 12:35:52;;;;;;;12.52;4.25;;;;;;;;;;5030283;28;20033;-84
2021/12/07 12:38:31;;;;;;;10.88;3.58;;;;;;;;;;5021481;28;20041;-84
2021/12/07 12:41:02;;;;;;;9.10;3.35;;;;;;;;;;5018770;28;20377;-84
2021/12/07 12:43:51;;;;;;;11.70;3.10;;;;;;;;;;5019399;28;20183;-84
2021/12/07 12:46:22;;;;;;;11.27;3.53;;;;;;;;;;5001860;28;20088;-83
2021/12/07 12:48:50;;;;;;;8.68;3.42;;;;;;;;;;5001264;28;20095;-84
2021/12/07 12:51:18;;;;;;;12.07;3.40;;;;;;;;;;4984439;28;20037;-82
2021/12/07 12:53:45;;;;;;;8.48;3.03;;;;;;;;;;5001106;28;20044;-82
2021/12/07 12:56:13;;;;;;;9.30;3.42;;;;;;;;;;4996678;28;20029;-83
2021/12/07 12:58:42;;;;;;;8.23;3.42;;;;;;;;;;5000196;28;20041;-82
2021/12/07 13:01:14;;;;;;;7.82;3.20;;;;;;;;;;4999926;28;20061;-84
2021/12/07 13:03:43;;;;;;;10.18;3.58;;;;;;;;;;4983923;28;20481;-83
2021/12/07 13:06:33;;;;;;;14.35;4.13;;;;;;;;;;4999160;28;20041;-83
2021/12/07 13:09:00;;;;;;;9.88;4.53;;;;;;;;;;4989077;28;20103;-84
2021/12/07 13:11:35;;;;;;;10.60;4.15;;;;;;;;;;5016640;28;20523;-83
2021/12/07 13:14:02;;;;;;;12.10;4.93;;;;;;;;;;5002243;28;20048;-84
2021/12/07 13:16:28;;;;;;;10.20;3.95;;;;;;;;;;5000665;28;20111;-83
2021/12/07 13:19:02;;;;;;;9.90;4.20;;;;;;;;;;5002376;28;20088;-85
2021/12/07 13:21:35;;;;;;;9.00;3.85;;;;;;;;;;4999264;28;20324;-82
2021/12/07 13:24:14;;;;;;;10.85;4.50;;;;;;;;;;5002214;28;20057;-83
2021/12/07 13:26:42;;;;;;;11.85;4.32;;;;;;;;;;4994799;28;20034;-82
2021/12/07 13:29:13;;;;;;;10.48;4.90;;;;;;;;;;4998165;28;20458;-83
2021/12/07 13:31:46;;;;;;;13.80;4.95;;;;;;;;;;4989764;28;20037;-82
2021/12/07 13:34:14;;;;;;;11.57;4.50;;;;;;;;;;4995401;28;20049;-84
2021/12/07 13:36:43;;;;;;;11.45;4.32;;;;;;;;;;5006395;28;20049;-82
2021/12/07 13:39:16;;;;;;;10.68;4.60;;;;;;;;;;4998200;28;20136;-83
2021/12/07 13:41:47;;;;;;;13.45;4.60;;;;;;;;;;5002348;28;20037;-84
2021/12/07 13:44:13;;;;;;;11.88;4.13;;;;;;;;;;4998915;28;20114;-86
2021/12/07 13:46:39;;;;;;;11.35;4.50;;;;;;;;;;5017524;28;20373;-83
2021/12/07 13:49:10;;;;;;;11.43;4.60;;;;;;;;;;5049712;28;20490;-84
2021/12/07 13:51:37;;;;;;;9.52;4.43;;;;;;;;;;5022278;28;20034;-83
2021/12/07 13:54:04;;;;;;;12.85;5.22;;;;;;;;;;5018191;28;20347;-84
2021/12/07 13:56:38;;;;;;;11.32;4.93;;;;;;;;;;5023421;28;20045;-83
2021/12/07 13:59:04;;;;;;;15.00;4.80;;;;;;;;;;5024368;28;20041;-83
2021/12/07 14:01:31;;;;;;;10.57;4.20;;;;;;;;;;5021853;28;20545;-84
2021/12/07 14:03:57;;;;;;;14.75;5.22;;;;;;;;;;5031521;28;20168;-84
2021/12/07 14:06:24;;;;;;;8.77;3.95;;;;;;;;;;5029657;28;20037;-84
2021/12/07 14:08:51;;;;;;;7.45;4.03;;;;;;;;;;5037527;28;20037;-81
2021/12/07 14:11:19;;;;;;;12.93;4.07;;;;;;;;;;5025062;28;20045;-82
2021/12/07 14:13:49;;;;;;;12.32;4.25;;;;;;;;;;5018206;28;20037;-84
2021/12/07 14:16:16;;;;;;;8.90;4.40;;;;;;;;;;5018167;28;20041;-84
2021/12/07 14:18:44;;;;;;;12.38;5.35;;;;;;;;;;5018288;28;20037;-84
2021/12/07 14:21:11;;;;;;;14.88;4.55;;;;;;;;;;5026049;28;20045;-83
2021/12/07 14:23:39;;;;;;;12.75;4.50;;;;;;;;;;5025360;28;20047;-84
2021/12/07 14:26:07;;;;;;;13.27;4.38;;;;;;;;;;5038052;28;20045;-83
2021/12/07 14:28:36;;;;;;;12.00;4.35;;;;;;;;;;5017241;28;20038;-85
2021/12/07 14:31:02;;;;;;;9.63;4.32;;;;;;;;;;5025190;28;20042;-83
2021/12/07 14:33:28;;;;;;;11.98;4.60;;;;;;;;;;5031460;28;20037;-82
2021/12/07 14:35:55;;;;;;;12.75;4.80;;;;;;;;;;5023513;28;20036;-82
2021/12/07 14:38:21;;;;;;;11.43;5.32;;;;;;;;;;5036379;28;20042;-83
2021/12/07 14:40:47;;;;;;;10.50;5.45;;;;;;;;;;5019559;28;20468;-82
2021/12/07 14:43:13;;;;;;;11.40;5.05;;;;;;;;;;5017271;28;20033;-84
2021/12/07 14:48:37;;;;;;;10.05;4.53;;;;;;;;;;5033409;28;20524;-81
2021/12/07 14:51:09;;;;;;;12.30;4.65;;;;;;;;;;5018020;28;20041;-84
2021/12/07 14:53:37;;;;;;;10.20;5.10;;;;;;;;;;5019689;28;20453;-83
2021/12/07 14:56:04;;;;;;;11.57;4.93;;;;;;;;;;5017099;28;20042;-79
2021/12/07 14:58:31;;;;;;;10.57;4.32;;;;;;;;;;5044706;28;20447;-83
2021/12/07 15:00:58;;;;;;;9.00;4.40;;;;;;;;;;5017064;28;20084;-81
2021/12/07 15:03:33;;;;;;;11.05;4.38;;;;;;;;;;5034477;28;20041;-81
2021/12/07 15:05:59;;;;;;;10.32;4.63;;;;;;;;;;5023781;28;20048;-83
2021/12/07 15:08:35;;;;;;;13.20;4.80;;;;;;;;;;5036536;28;20045;-82
2021/12/07 15:11:01;;;;;;;10.95;4.47;;;;;;;;;;5026298;28;20041;-82
2021/12/07 15:13:27;;;;;;;14.23;5.25;;;;;;;;;;5017208;28;20483;-82
2021/12/07 15:15:55;;;;;;;12.27;5.20;;;;;;;;;;5017063;28;20072;-82
2021/12/07 15:18:28;;;;;;;11.55;5.07;;;;;;;;;;5016752;28;20155;-81
2021/12/07 15:20:54;;;;;;;9.25;4.53;;;;;;;;;;5023713;28;20480;-80
2021/12/07 15:23:21;;;;;;;14.32;4.93;;;;;;;;;;5016656;28;20137;-80
2021/12/07 15:25:52;;;;;;;12.40;5.05;;;;;;;;;;5017120;28;20048;-79
2021/12/07 15:28:18;;;;;;;12.32;5.22;;;;;;;;;;5016277;28;20143;-79
2021/12/07 15:30:45;;;;;;;10.90;5.03;;;;;;;;;;5039813;28;20480;-79
2021/12/07 15:33:12;;;;;;;13.88;5.53;;;;;;;;;;5032153;28;20036;-78
2021/12/07 15:35:38;;;;;;;10.68;5.75;;;;;;;;;;5036371;28;20369;-80
2021/12/07 15:38:04;;;;;;;12.40;6.10;;;;;;;;;;5041021;28;20041;-80
2021/12/07 15:40:30;;;;;;;12.55;6.22;;;;;;;;;;5038941;28;20098;-79
2021/12/07 15:42:56;;;;;;;12.73;6.55;;;;;;;;;;5032363;28;20388;-79
2021/12/07 15:45:23;;;;;;;17.83;6.72;;;;;;;;;;5016504;28;20053;-81
2021/12/07 15:47:51;;;;;;;16.35;7.65;;;;;;;;;;5016376;28;20049;-80
2021/12/07 15:50:18;;;;;;;15.27;7.68;;;;;;;;;;5016899;28;20048;-80
2021/12/07 15:52:47;;;;;;;14.10;7.57;;;;;;;;;;5032778;28;20052;-79
2021/12/07 15:55:14;;;;;;;21.23;8.20;;;;;;;;;;5049215;28;20111;-81
2021/12/07 15:57:49;;;;;;;15.38;8.30;;;;;;;;;;5049559;28;20055;-79
2021/12/07 16:00:17;;;;;;;21.00;8.13;;;;;;;;;;5015943;28;20033;-78
2021/12/07 16:02:50;;;;;;;13.98;8.15;;;;;;;;;;5031835;28;20048;-80
2021/12/07 16:05:17;;;;;;;18.08;9.02;;;;;;;;;;5016366;28;20182;-80
2021/12/07 16:07:44;;;;;;;16.92;8.80;;;;;;;;;;5036429;28;20485;-80
2021/12/07 16:10:22;;;;;;;23.70;9.27;;;;;;;;;;5033238;28;20063;-78
2021/12/07 16:13:05;;;;;;;20.27;9.63;;;;;;;;;;5032569;28;20481;-81
2021/12/07 16:15:32;;;;;;;19.02;9.77;;;;;;;;;;5016163;28;20091;-81
2021/12/07 16:17:59;;;;;;;17.25;9.38;;;;;;;;;;5023704;28;20049;-80
2021/12/07 16:20:25;;;;;;;17.80;9.60;;;;;;;;;;5020212;28;20059;-79
2021/12/07 16:22:51;;;;;;;19.08;10.35;;;;;;;;;;5030939;28;20041;-80
2021/12/07 16:25:18;;;;;;;23.58;10.80;;;;;;;;;;5054902;28;20216;-83
2021/12/07 16:27:44;;;;;;;20.48;9.90;;;;;;;;;;5056376;28;20041;-81
2021/12/07 16:30:11;;;;;;;18.17;9.52;;;;;;;;;;5023922;28;20120;-77
2021/12/07 16:32:38;;;;;;;15.88;9.80;;;;;;;;;;5036047;28;20045;-80